Time;durP1;ratioP1;P1;durP2;ratioP2;P2;SDS_P1;SDS_P2;PMS_P1;PMS_P2;Temp;Humidity;BMP_temperature;BMP_pressure;BME280_temperature;BME280_humidity;BME280_pressure;Samples;Min_cycle;Max_cycle;Signal;HPM_P1;HPM_P2
2021/09/02 00:00:29;;;;;;;7.47;4.40;;;;;;;13.93;86.56;98179.63;5031390;28;20037;-55
2021/09/02 00:02:55;;;;;;;6.78;4.20;;;;;;;14.06;86.45;98191.81;5031010;28;20026;-52
2021/09/02 00:05:20;;;;;;;8.00;3.97;;;;;;;14.06;86.14;98179.59;5021450;28;20119;-52
2021/09/02 00:07:46;;;;;;;6.93;3.97;;;;;;;14.11;85.38;98182.69;5030614;28;20078;-53
2021/09/02 00:10:12;;;;;;;7.88;4.05;;;;;;;14.06;84.75;98181.34;5030567;28;20056;-51
2021/09/02 00:12:40;;;;;;;6.53;3.95;;;;;;;14.13;84.19;98182.59;5030719;28;20053;-51
2021/09/02 00:15:07;;;;;;;6.70;3.85;;;;;;;14.06;83.81;98181.34;5030948;28;20076;-49
2021/09/02 00:17:33;;;;;;;7.47;4.50;;;;;;;13.96;84.31;98174.19;5031637;28;20069;-49
2021/09/02 00:19:58;;;;;;;8.00;4.25;;;;;;;13.88;84.64;98183.50;5030133;28;20529;-53
2021/09/02 00:22:24;;;;;;;7.18;3.92;;;;;;;13.88;84.65;98181.72;5030854;28;20079;-54
2021/09/02 00:24:50;;;;;;;5.80;3.80;;;;;;;13.87;84.55;98180.06;5029748;28;20064;-51
2021/09/02 00:27:16;;;;;;;9.35;4.25;;;;;;;13.82;84.44;98182.16;5029364;28;20048;-51
2021/09/02 00:29:41;;;;;;;7.63;4.07;;;;;;;13.78;84.76;98178.09;5030866;28;20042;-50
2021/09/02 00:32:07;;;;;;;8.00;4.18;;;;;;;13.76;84.73;98176.56;5028207;28;20425;-51
2021/09/02 00:34:33;;;;;;;8.10;4.22;;;;;;;13.65;84.87;98174.72;5022361;28;20047;-50
2021/09/02 00:36:58;;;;;;;8.35;4.63;;;;;;;13.56;85.29;98175.34;5011503;28;20045;-53
2021/09/02 00:39:24;;;;;;;7.07;4.97;;;;;;;13.48;86.00;98173.28;5028489;28;20495;-51
2021/09/02 00:41:52;;;;;;;7.68;4.47;;;;;;;13.41;86.58;98171.19;5029962;28;20051;-52
2021/09/02 00:44:41;;;;;;;6.43;4.55;;;;;;;13.36;87.12;98178.50;5030630;28;20509;-50
2021/09/02 00:47:11;;;;;;;8.63;5.00;;;;;;;13.15;87.57;98154.75;5031237;28;20045;-50
2021/09/02 00:49:38;;;;;;;7.75;4.70;;;;;;;13.28;87.98;98186.06;5030849;28;20045;-52
2021/09/02 00:52:08;;;;;;;7.05;4.80;;;;;;;13.30;87.98;98181.53;5030413;28;20511;-51
2021/09/02 00:54:37;;;;;;;6.05;4.07;;;;;;;13.32;87.82;98180.50;5029793;28;20041;-53
2021/09/02 00:57:03;;;;;;;9.38;4.60;;;;;;;13.29;88.14;98174.69;5029797;28;20033;-52
2021/09/02 00:59:29;;;;;;;8.65;4.82;;;;;;;13.27;88.62;98176.53;5030537;28;20048;-52
2021/09/02 01:01:54;;;;;;;9.73;4.60;;;;;;;13.30;89.04;98173.72;5030031;28;20045;-51
2021/09/02 01:04:22;;;;;;;8.65;4.40;;;;;;;13.39;88.72;98176.53;5029902;28;20045;-51
2021/09/02 01:06:49;;;;;;;7.30;4.72;;;;;;;13.49;87.78;98171.50;5030141;28;20161;-52
2021/09/02 01:09:16;;;;;;;7.53;4.53;;;;;;;13.52;87.48;98168.66;5030040;28;20132;-52
2021/09/02 01:11:41;;;;;;;8.77;5.30;;;;;;;13.67;87.46;98188.47;5029543;28;20048;-52
2021/09/02 01:14:07;;;;;;;7.10;4.32;;;;;;;13.74;86.93;98194.09;5028796;28;20049;-52
2021/09/02 01:16:33;;;;;;;9.05;4.85;;;;;;;13.79;86.69;98190.22;5030369;28;20128;-52
2021/09/02 01:18:59;;;;;;;7.75;4.38;;;;;;;13.84;86.19;98190.72;5030308;28;20088;-50
2021/09/02 01:21:24;;;;;;;7.60;4.53;;;;;;;13.88;85.56;98196.56;5028674;28;20041;-50
2021/09/02 01:23:50;;;;;;;7.88;4.43;;;;;;;13.90;84.90;98186.84;5029363;28;20512;-51
2021/09/02 01:26:20;;;;;;;7.60;4.32;;;;;;;13.93;84.69;98192.69;5029255;28;20508;-52
2021/09/02 01:28:47;;;;;;;8.00;4.22;;;;;;;13.95;84.43;98198.63;5028656;28;20132;-51
2021/09/02 01:31:19;;;;;;;8.70;4.47;;;;;;;13.97;84.36;98191.50;5029685;28;20033;-52
2021/09/02 01:33:48;;;;;;;6.40;4.25;;;;;;;14.02;84.00;98199.03;5028507;28;20787;-54
2021/09/02 01:36:14;;;;;;;7.90;4.65;;;;;;;14.06;83.76;98204.88;5010558;28;20057;-49
2021/09/02 01:38:39;;;;;;;9.05;4.38;;;;;;;13.86;83.75;98164.50;5011825;28;20461;-52
2021/09/02 01:41:05;;;;;;;7.68;3.97;;;;;;;14.08;83.46;98203.81;5029601;28;20127;-51
2021/09/02 01:43:31;;;;;;;8.15;4.07;;;;;;;14.10;83.37;98212.38;5026726;28;20509;-51
2021/09/02 01:45:56;;;;;;;7.78;4.43;;;;;;;14.12;83.16;98201.81;5029462;28;20045;-49
2021/09/02 01:48:22;;;;;;;7.90;4.60;;;;;;;14.11;82.90;98201.00;5029506;28;20045;-50
2021/09/02 01:50:48;;;;;;;6.85;4.43;;;;;;;14.10;82.63;98206.31;5029924;28;20037;-52
2021/09/02 01:53:15;;;;;;;6.43;4.43;;;;;;;14.11;82.24;98208.00;5028667;28;20144;-51
2021/09/02 01:55:43;;;;;;;5.13;3.90;;;;;;;14.13;82.42;98211.34;5029454;28;20491;-48
2021/09/02 01:58:09;;;;;;;6.75;4.25;;;;;;;14.12;82.25;98207.88;4994662;28;20488;-51
2021/09/02 02:00:35;;;;;;;7.93;3.90;;;;;;;14.17;81.88;98213.63;5028712;28;20068;-50
2021/09/02 02:03:01;;;;;;;8.98;4.15;;;;;;;14.20;81.83;98218.59;5026665;28;20052;-49
2021/09/02 02:05:27;;;;;;;8.32;4.03;;;;;;;14.21;81.40;98219.44;5019042;28;20072;-54
2021/09/02 02:07:53;;;;;;;9.48;4.30;;;;;;;14.20;81.23;98216.00;5029644;28;20076;-55
2021/09/02 02:10:22;;;;;;;7.15;3.92;;;;;;;14.24;81.40;98216.59;5029249;28;20049;-54
2021/09/02 02:12:48;;;;;;;7.68;4.07;;;;;;;14.24;81.41;98213.97;5028685;28;20080;-49
2021/09/02 02:15:14;;;;;;;7.25;3.85;;;;;;;14.17;81.14;98199.72;5027578;28;20056;-52
2021/09/02 02:17:41;;;;;;;6.20;4.18;;;;;;;14.23;80.83;98215.78;5027927;28;20041;-52
2021/09/02 02:20:08;;;;;;;6.72;3.97;;;;;;;14.23;80.41;98213.19;5028337;28;20034;-48
2021/09/02 02:22:34;;;;;;;7.95;4.38;;;;;;;14.23;80.07;98215.78;5028791;28;20044;-53
2021/09/02 02:24:59;;;;;;;5.43;3.63;;;;;;;14.23;79.77;98228.03;5028383;28;20041;-50
2021/09/02 02:27:26;;;;;;;5.95;3.78;;;;;;;14.22;79.72;98236.81;5029376;28;20111;-48
2021/09/02 02:29:52;;;;;;;4.80;3.38;;;;;;;14.21;79.54;98230.75;5029249;28;20501;-49
2021/09/02 02:32:17;;;;;;;6.30;3.75;;;;;;;14.22;79.36;98224.56;5028984;28;20095;-50
2021/09/02 02:34:43;;;;;;;6.43;3.30;;;;;;;14.21;79.13;98233.34;5019983;28;20209;-51
2021/09/02 02:37:09;;;;;;;5.53;3.45;;;;;;;14.22;78.58;98234.19;5023564;28;20095;-49
2021/09/02 02:39:38;;;;;;;7.70;3.60;;;;;;;14.22;79.07;98224.56;5029212;28;20428;-50
2021/09/02 02:42:08;;;;;;;4.57;3.42;;;;;;;14.21;78.81;98224.66;5028480;28;20389;-50
2021/09/02 02:44:35;;;;;;;5.70;3.38;;;;;;;14.11;78.87;98210.59;5029006;28;20523;-48
2021/09/02 02:47:00;;;;;;;6.60;3.83;;;;;;;14.23;78.54;98231.47;5028706;28;20067;-49
2021/09/02 02:49:26;;;;;;;7.30;3.25;;;;;;;14.25;78.33;98226.94;5029143;28;20041;-53
2021/09/02 02:51:52;;;;;;;6.45;3.40;;;;;;;14.30;78.34;98226.63;5027839;28;20072;-54
2021/09/02 02:54:18;;;;;;;4.60;3.30;;;;;;;14.30;78.37;98231.84;5029053;28;20421;-51
2021/09/02 02:56:44;;;;;;;5.90;3.38;;;;;;;14.29;78.22;98228.38;5028179;28;20556;-53
2021/09/02 02:59:10;;;;;;;5.70;3.40;;;;;;;14.18;78.19;98220.53;5030375;28;20131;-52
2021/09/02 03:01:37;;;;;;;4.50;3.20;;;;;;;14.31;77.91;98238.75;5025769;28;20489;-52
2021/09/02 03:04:02;;;;;;;6.53;3.80;;;;;;;14.33;77.89;98236.88;5032042;28;20056;-51
2021/09/02 03:06:28;;;;;;;5.32;3.10;;;;;;;14.32;77.70;98236.03;5032721;28;20037;-53
2021/09/02 03:08:54;;;;;;;6.75;3.60;;;;;;;14.21;77.39;98222.91;5032460;28;20045;-53
2021/09/02 03:11:20;;;;;;;6.03;3.35;;;;;;;14.30;77.42;98240.53;5029724;28;20044;-53
2021/09/02 03:13:45;;;;;;;6.68;3.28;;;;;;;14.30;77.46;98239.69;5031569;28;20049;-53
2021/09/02 03:16:11;;;;;;;5.93;3.10;;;;;;;14.29;77.09;98235.41;5032097;28;20424;-54
2021/09/02 03:18:37;;;;;;;6.72;3.60;;;;;;;14.29;76.96;98236.22;5032560;28;20056;-55
2021/09/02 03:21:03;;;;;;;8.38;3.28;;;;;;;14.33;77.02;98244.72;5032308;28;20046;-47
2021/09/02 03:23:29;;;;;;;6.80;3.35;;;;;;;14.32;77.02;98240.41;5030872;28;20038;-53
2021/09/02 03:25:55;;;;;;;6.25;3.22;;;;;;;14.34;76.80;98249.00;5032318;28;20052;-49
2021/09/02 03:28:21;;;;;;;5.70;3.20;;;;;;;14.38;76.52;98245.25;5032322;28;20136;-49
2021/09/02 03:30:47;;;;;;;6.45;3.40;;;;;;;14.40;76.28;98252.00;5031714;28;20120;-53
2021/09/02 03:33:13;;;;;;;5.35;3.53;;;;;;;14.42;76.67;98254.53;5030967;28;20132;-49
2021/09/02 03:35:38;;;;;;;4.18;2.85;;;;;;;14.45;76.50;98258.69;5016071;28;20095;-52
2021/09/02 03:38:05;;;;;;;11.73;3.80;;;;;;;14.44;76.54;98252.66;5031935;28;20049;-53
2021/09/02 03:40:31;;;;;;;4.78;3.03;;;;;;;14.45;76.35;98256.06;5032288;28;20083;-52
2021/09/02 03:42:57;;;;;;;8.20;4.03;;;;;;;14.46;76.35;98258.56;5030396;28;20502;-52
2021/09/02 03:45:23;;;;;;;8.15;4.05;;;;;;;14.41;75.98;98251.06;5030043;28;20251;-52
2021/09/02 03:47:49;;;;;;;7.07;3.22;;;;;;;14.49;76.13;98247.06;5031900;28;20041;-53
2021/09/02 03:50:16;;;;;;;5.07;2.95;;;;;;;14.47;75.88;98255.03;5031743;28;20041;-52
2021/09/02 03:52:41;;;;;;;8.25;4.00;;;;;;;14.49;76.45;98258.38;5031166;28;20049;-52
2021/09/02 03:55:08;;;;;;;4.00;2.75;;;;;;;14.49;76.51;98247.91;5031422;28;20072;-50
2021/09/02 03:57:33;;;;;;;6.68;4.20;;;;;;;14.50;75.88;98240.91;5030737;28;20044;-52
2021/09/02 03:59:59;;;;;;;6.88;3.63;;;;;;;14.50;75.85;98259.22;5031558;28;20517;-53
2021/09/02 04:02:26;;;;;;;4.43;2.67;;;;;;;14.49;75.58;98241.84;5029896;28;20049;-52
2021/09/02 04:04:51;;;;;;;6.35;3.05;;;;;;;14.47;75.46;98247.19;5030811;28;20064;-51
2021/09/02 04:07:17;;;;;;;4.88;3.15;;;;;;;14.50;75.45;98248.75;5028069;28;20521;-49
2021/09/02 04:09:43;;;;;;;6.65;3.40;;;;;;;14.52;75.39;98252.06;5031100;28;20136;-54
2021/09/02 04:12:08;;;;;;;6.30;3.10;;;;;;;14.55;75.35;98249.25;5031006;28;20124;-53
2021/09/02 04:14:34;;;;;;;7.10;4.53;;;;;;;14.59;75.02;98250.69;5030417;28;20052;-53
2021/09/02 04:17:00;;;;;;;5.63;3.72;;;;;;;14.63;74.84;98247.72;5031321;28;20038;-53
2021/09/02 04:19:25;;;;;;;6.65;4.18;;;;;;;14.63;74.56;98258.19;5031762;28;20052;-50
2021/09/02 04:21:51;;;;;;;12.50;7.38;;;;;;;14.67;74.50;98267.47;5030857;28;20045;-52
2021/09/02 04:24:17;;;;;;;7.75;4.13;;;;;;;14.73;74.16;98263.56;5029606;28;20025;-50
2021/09/02 04:26:43;;;;;;;10.27;3.67;;;;;;;14.76;73.86;98263.34;5030908;28;20086;-50
2021/09/02 04:29:09;;;;;;;7.05;3.22;;;;;;;14.60;73.63;98231.44;5030488;28;21835;-51
2021/09/02 04:31:35;;;;;;;6.50;3.25;;;;;;;14.79;73.16;98265.75;5030762;28;20042;-50
2021/09/02 04:34:01;;;;;;;6.07;3.35;;;;;;;14.82;73.25;98268.13;5027350;28;20056;-52
2021/09/02 04:36:26;;;;;;;7.07;3.67;;;;;;;14.88;73.28;98264.22;5024179;28;20048;-52
2021/09/02 04:38:52;;;;;;;7.72;3.90;;;;;;;14.93;73.34;98270.78;5030707;28;20133;-50
2021/09/02 04:41:18;;;;;;;4.95;3.10;;;;;;;14.99;72.87;98265.09;5030522;28;20057;-51
2021/09/02 04:43:44;;;;;;;6.35;3.00;;;;;;;15.03;72.49;98257.81;5027880;28;20041;-53
2021/09/02 04:46:11;;;;;;;14.18;4.93;;;;;;;15.08;72.17;98268.78;5028811;28;20037;-54
2021/09/02 04:48:37;;;;;;;10.15;4.35;;;;;;;15.11;71.67;98258.09;5030618;28;20059;-49
2021/09/02 04:51:03;;;;;;;7.57;3.42;;;;;;;15.11;70.98;98258.94;5029371;28;20033;-53
2021/09/02 04:53:29;;;;;;;7.97;3.42;;;;;;;15.01;70.72;98244.03;5029945;28;20087;-50
2021/09/02 04:55:55;;;;;;;9.35;5.45;;;;;;;15.15;70.97;98272.63;5029082;28;20063;-49
2021/09/02 04:58:21;;;;;;;11.00;4.20;;;;;;;15.07;70.88;98246.19;5028804;28;20517;-52
2021/09/02 05:00:47;;;;;;;14.32;5.35;;;;;;;15.20;71.07;98260.84;5028968;28;20052;-51
2021/09/02 05:03:12;;;;;;;10.23;5.40;;;;;;;15.28;71.08;98268.16;5028912;28;20065;-52
2021/09/02 05:05:38;;;;;;;8.40;3.65;;;;;;;15.35;70.40;98261.47;5028838;28;20083;-50
2021/09/02 05:08:05;;;;;;;11.13;5.03;;;;;;;15.45;70.13;98270.28;5029718;28;20041;-52
2021/09/02 05:10:31;;;;;;;7.13;4.00;;;;;;;15.53;69.55;98269.75;5029628;28;20034;-54
2021/09/02 05:12:57;;;;;;;8.13;4.75;;;;;;;15.58;68.89;98271.06;5028897;28;20090;-51
2021/09/02 05:15:23;;;;;;;6.57;3.72;;;;;;;15.64;68.51;98267.13;5028101;28;20374;-53
2021/09/02 05:17:52;;;;;;;5.97;3.40;;;;;;;15.67;67.89;98282.59;5029679;28;20568;-50
2021/09/02 05:20:17;;;;;;;8.60;3.95;;;;;;;15.73;67.94;98278.69;5029522;28;20041;-52
2021/09/02 05:22:44;;;;;;;4.82;2.88;;;;;;;15.76;67.71;98276.66;5029183;28;20040;-47
2021/09/02 05:25:10;;;;;;;6.18;3.00;;;;;;;15.75;67.50;98277.63;5028445;28;20469;-51
2021/09/02 05:27:36;;;;;;;7.60;3.35;;;;;;;15.77;67.53;98275.69;5028467;28;20029;-52
2021/09/02 05:30:05;;;;;;;5.38;2.60;;;;;;;15.80;67.59;98285.13;5029564;28;20052;-50
2021/09/02 05:32:31;;;;;;;5.40;2.67;;;;;;;15.55;66.90;98252.09;5028437;28;20045;-52
2021/09/02 05:34:57;;;;;;;6.47;2.95;;;;;;;15.65;66.68;98266.16;5025714;28;20045;-53
2021/09/02 05:37:22;;;;;;;8.20;3.63;;;;;;;15.81;66.53;98281.53;5029750;28;20037;-54
2021/09/02 05:39:48;;;;;;;5.00;2.50;;;;;;;15.86;66.50;98276.78;5029055;28;20167;-49
2021/09/02 05:42:14;;;;;;;7.72;4.05;;;;;;;15.93;66.11;98293.69;5025865;28;20048;-51
2021/09/02 05:44:40;;;;;;;18.83;11.68;;;;;;;16.00;66.21;98290.47;5029189;28;20052;-55
2021/09/02 05:47:06;;;;;;;13.00;3.28;;;;;;;16.10;66.22;98290.56;5029477;28;20134;-53
2021/09/02 05:49:32;;;;;;;10.75;4.47;;;;;;;16.19;65.97;98296.88;5028591;28;20135;-53
2021/09/02 05:51:57;;;;;;;6.20;2.65;;;;;;;16.18;65.11;98290.78;5009294;28;20054;-49
2021/09/02 05:54:23;;;;;;;4.65;2.58;;;;;;;16.11;65.13;98273.91;5009496;28;20045;-50
2021/09/02 05:56:49;;;;;;;5.60;2.40;;;;;;;16.26;64.69;98291.03;5026044;28;20041;-50
2021/09/02 05:59:14;;;;;;;7.40;3.72;;;;;;;16.35;64.53;98295.53;5027153;28;20124;-52
2021/09/02 06:01:40;;;;;;;5.57;2.65;;;;;;;16.48;64.33;98296.22;5027947;28;20552;-51
2021/09/02 06:04:06;;;;;;;5.70;2.63;;;;;;;16.62;64.22;98292.50;5029489;28;20045;-53
2021/09/02 06:06:32;;;;;;;5.55;2.60;;;;;;;16.71;64.14;98291.75;5027671;28;20053;-50
2021/09/02 06:08:57;;;;;;;7.95;2.50;;;;;;;16.78;63.81;98303.44;5029498;28;20045;-56
2021/09/02 06:11:23;;;;;;;4.13;2.63;;;;;;;16.80;63.47;98298.06;5028402;28;20513;-50
2021/09/02 06:13:49;;;;;;;6.70;3.20;;;;;;;16.76;63.07;98307.97;5028788;28;20049;-51
2021/09/02 06:16:15;;;;;;;3.65;2.10;;;;;;;16.72;62.61;98309.19;5025990;28;20045;-58
2021/09/02 06:18:40;;;;;;;9.50;2.58;;;;;;;16.63;63.17;98294.19;5028967;28;20049;-56
2021/09/02 06:21:06;;;;;;;8.45;3.25;;;;;;;16.78;62.95;98324.44;5029638;28;20045;-52
2021/09/02 06:23:32;;;;;;;4.75;2.22;;;;;;;16.61;62.68;98316.25;5030931;28;20041;-50
2021/09/02 06:25:58;;;;;;;5.13;2.00;;;;;;;16.67;62.68;98327.09;5026882;28;20120;-51
2021/09/02 06:28:24;;;;;;;3.95;2.00;;;;;;;16.69;63.06;98334.84;5027686;28;20524;-54
2021/09/02 06:30:49;;;;;;;5.60;2.10;;;;;;;16.70;62.68;98339.09;5026156;28;20052;-48
2021/09/02 06:33:15;;;;;;;4.40;2.30;;;;;;;16.76;62.44;98336.84;5031563;28;20103;-52
2021/09/02 06:35:41;;;;;;;8.10;2.60;;;;;;;16.77;62.33;98317.50;5027507;28;20434;-49
2021/09/02 06:38:07;;;;;;;3.97;2.22;;;;;;;16.98;62.05;98335.09;5028755;28;20049;-48
2021/09/02 06:40:33;;;;;;;6.60;2.22;;;;;;;17.03;62.00;98346.03;5020381;28;20465;-48
2021/09/02 06:42:59;;;;;;;10.27;3.50;;;;;;;17.06;61.80;98348.44;5031139;28;20045;-48
2021/09/02 06:45:25;;;;;;;4.57;1.90;;;;;;;16.97;61.26;98343.91;5027618;28;20060;-51
2021/09/02 06:47:51;;;;;;;7.38;2.30;;;;;;;16.92;61.01;98342.50;5031063;28;20076;-49
2021/09/02 06:50:16;;;;;;;8.25;3.65;;;;;;;16.94;61.31;98340.59;5027721;28;20420;-52
2021/09/02 06:52:43;;;;;;;8.80;2.42;;;;;;;17.06;61.52;98341.38;5031427;28;20049;-50
2021/09/02 06:55:10;;;;;;;4.63;2.50;;;;;;;17.17;61.28;98341.31;5031807;28;20049;-49
2021/09/02 06:57:36;;;;;;;6.57;2.40;;;;;;;17.29;60.62;98348.19;5022234;28;20397;-50
2021/09/02 07:00:04;;;;;;;5.25;2.15;;;;;;;17.31;60.31;98337.56;5023478;28;20034;-49
2021/09/02 07:02:30;;;;;;;9.67;2.90;;;;;;;17.36;60.19;98352.00;5028861;28;20037;-48
2021/09/02 07:04:55;;;;;;;5.03;2.42;;;;;;;17.38;60.04;98353.66;5027758;28;20330;-52
2021/09/02 07:07:21;;;;;;;6.40;2.72;;;;;;;17.27;60.18;98347.47;5029220;28;20056;-49
2021/09/02 07:09:47;;;;;;;5.70;2.03;;;;;;;17.38;59.93;98357.09;5028687;28;20056;-49
2021/09/02 07:12:12;;;;;;;11.85;2.95;;;;;;;17.43;59.81;98362.00;5029991;28;20045;-49
2021/09/02 07:14:39;;;;;;;5.05;3.13;;;;;;;17.51;59.63;98367.44;5033217;28;20045;-59
2021/09/02 07:17:05;;;;;;;5.43;2.67;;;;;;;17.55;59.40;98363.56;5032239;28;20155;-59
2021/09/02 07:19:31;;;;;;;8.77;5.40;;;;;;;17.58;58.92;98369.44;5030849;28;20491;-58
2021/09/02 07:21:58;;;;;;;5.82;2.08;;;;;;;17.60;58.13;98364.06;5026048;28;20505;-56
2021/09/02 07:24:24;;;;;;;3.65;1.83;;;;;;;17.58;57.92;98345.78;5029493;28;20041;-58
2021/09/02 07:26:49;;;;;;;4.85;1.90;;;;;;;17.89;57.63;98365.06;5030164;28;20087;-58
2021/09/02 07:29:15;;;;;;;3.85;1.90;;;;;;;18.11;57.42;98369.31;5031035;28;20052;-56
2021/09/02 07:31:41;;;;;;;5.90;2.55;;;;;;;18.33;56.67;98358.59;5028589;28;20037;-55
2021/09/02 07:34:07;;;;;;;5.97;2.45;;;;;;;18.42;56.45;98368.31;5028237;28;20580;-59
2021/09/02 07:36:34;;;;;;;8.10;5.63;;;;;;;18.51;56.35;98366.69;5025475;28;20127;-56
2021/09/02 07:39:00;;;;;;;5.45;3.75;;;;;;;19.16;54.33;98371.38;5021062;28;20040;-53
2021/09/02 07:41:25;;;;;;;6.07;3.40;;;;;;;20.70;50.61;98365.72;5032120;28;20040;-55
2021/09/02 07:43:51;;;;;;;4.15;2.30;;;;;;;20.78;50.05;98376.38;5028006;28;20060;-59
2021/09/02 07:46:17;;;;;;;5.53;2.30;;;;;;;20.42;51.10;98377.25;5030179;28;20452;-54
2021/09/02 07:48:46;;;;;;;5.63;2.30;;;;;;;20.06;51.41;98378.91;5020480;28;20390;-59
2021/09/02 07:51:13;;;;;;;3.85;1.88;;;;;;;19.89;51.21;98354.94;5024053;28;20107;-59
2021/09/02 07:53:39;;;;;;;4.88;1.83;;;;;;;20.67;48.92;98366.03;5010288;28;20050;-57
2021/09/02 07:56:05;;;;;;;5.70;3.40;;;;;;;22.51;45.52;98373.91;5011840;28;20042;-57
2021/09/02 07:58:31;;;;;;;11.23;2.92;;;;;;;24.20;42.27;98370.59;5020866;28;20540;-58
2021/09/02 08:00:56;;;;;;;4.07;2.40;;;;;;;25.40;38.69;98370.13;5026802;28;20428;-56
2021/09/02 08:03:23;;;;;;;8.20;2.70;;;;;;;25.84;37.98;98367.63;5024203;28;20469;-52
2021/09/02 08:05:54;;;;;;;5.78;1.65;;;;;;;24.89;39.11;98369.00;5011362;28;20041;-57
2021/09/02 08:08:20;;;;;;;3.83;1.50;;;;;;;23.43;40.87;98365.84;5025371;28;20041;-56
2021/09/02 08:10:48;;;;;;;3.00;1.95;;;;;;;22.36;43.25;98357.78;5027692;28;20162;-58
2021/09/02 08:13:14;;;;;;;3.95;1.77;;;;;;;21.48;45.02;98364.19;5023573;28;20033;-60
2021/09/02 08:15:40;;;;;;;5.70;2.10;;;;;;;21.00;46.57;98367.19;5014137;28;20481;-59
2021/09/02 08:18:07;;;;;;;4.00;2.15;;;;;;;20.58;47.64;98346.59;5023086;28;20040;-58
2021/09/02 08:20:34;;;;;;;6.13;2.58;;;;;;;20.59;47.93;98365.94;5027992;28;20071;-59
2021/09/02 08:23:00;;;;;;;4.07;2.38;;;;;;;20.57;47.82;98366.06;5027619;28;20533;-59
2021/09/02 08:25:26;;;;;;;3.70;2.00;;;;;;;20.48;47.32;98334.44;5039589;28;20049;-59
2021/09/02 08:27:52;;;;;;;5.55;2.45;;;;;;;20.41;47.44;98359.78;5028671;28;20053;-60
2021/09/02 08:30:21;;;;;;;4.38;2.22;;;;;;;19.98;48.76;98362.97;5031208;28;20045;-60
2021/09/02 08:32:48;;;;;;;4.28;1.85;;;;;;;19.65;49.33;98367.78;5027625;28;20501;-58
2021/09/02 08:35:22;;;;;;;4.90;2.38;;;;;;;19.30;49.69;98364.88;5026706;28;20049;-70
2021/09/02 08:37:56;;;;;;;3.13;1.63;;;;;;;19.06;50.02;98365.28;5028594;28;20044;-67
2021/09/02 08:40:28;;;;;;;6.40;2.15;;;;;;;18.86;50.31;98369.69;5027304;28;20416;-65
2021/09/02 08:42:54;;;;;;;7.38;2.45;;;;;;;18.76;50.54;98366.22;5025124;28;20446;-64
2021/09/02 08:45:22;;;;;;;4.22;2.60;;;;;;;18.75;51.14;98368.97;5013789;28;20037;-63
2021/09/02 08:47:49;;;;;;;8.43;2.42;;;;;;;18.83;51.37;98364.72;5023114;28;20037;-65
2021/09/02 08:50:17;;;;;;;4.32;2.80;;;;;;;19.04;51.09;98365.44;5020685;28;20041;-67
2021/09/02 08:52:43;;;;;;;5.70;3.10;;;;;;;19.51;50.03;98373.50;5025230;28;20076;-66
2021/09/02 08:55:09;;;;;;;4.60;1.95;;;;;;;20.40;47.78;98360.75;5029214;28;20520;-65
2021/09/02 08:57:35;;;;;;;4.68;2.90;;;;;;;21.39;45.70;98358.00;5029155;28;20068;-66
2021/09/02 09:00:00;;;;;;;4.32;2.58;;;;;;;22.42;43.54;98370.41;5029316;28;20044;-64
2021/09/02 09:02:28;;;;;;;6.35;2.75;;;;;;;23.54;41.42;98368.19;5028091;28;20512;-66
2021/09/02 09:05:07;;;;;;;5.90;2.65;;;;;;;24.19;39.52;98360.13;5024394;28;20034;-65
2021/09/02 09:07:41;;;;;;;5.38;2.80;;;;;;;24.87;38.61;98358.53;5025604;28;20049;-65
2021/09/02 09:10:15;;;;;;;4.55;2.40;;;;;;;24.71;38.94;98358.56;5029506;28;20045;-63
2021/09/02 09:12:52;;;;;;;4.55;2.58;;;;;;;24.38;39.63;98357.94;5027451;28;20041;-63
2021/09/02 09:15:33;;;;;;;15.68;2.83;;;;;;;23.64;40.75;98358.25;5026671;28;20049;-64
2021/09/02 09:18:19;;;;;;;7.60;3.92;;;;;;;23.71;40.30;98358.41;5026703;28;20041;-63
2021/09/02 09:21:16;;;;;;;4.10;2.40;;;;;;;24.68;38.33;98337.69;5027629;28;20045;-63
2021/09/02 09:24:04;;;;;;;5.60;2.90;;;;;;;26.27;35.06;98349.22;5024722;28;20038;-63
2021/09/02 09:26:31;;;;;;;6.33;2.70;;;;;;;26.22;35.45;98349.78;5026896;28;20072;-62
2021/09/02 09:29:15;;;;;;;5.28;2.78;;;;;;;25.00;36.73;98355.28;5005324;28;20284;-66
2021/09/02 09:31:41;;;;;;;5.65;2.38;;;;;;;23.72;38.85;98352.06;5023560;28;20041;-67
2021/09/02 09:34:07;;;;;;;5.88;2.50;;;;;;;22.82;41.46;98366.28;5026958;28;20143;-64
2021/09/02 09:36:36;;;;;;;8.05;2.30;;;;;;;22.06;43.64;98358.31;5018367;28;20052;-55
2021/09/02 09:39:11;;;;;;;6.72;3.72;;;;;;;21.55;45.48;98358.13;5020617;28;20041;-50
2021/09/02 09:41:39;;;;;;;5.90;3.35;;;;;;;21.26;46.30;98368.13;5019684;28;20581;-60
2021/09/02 09:44:17;;;;;;;5.03;2.20;;;;;;;21.22;46.96;98366.78;5025556;28;20030;-58
2021/09/02 09:47:13;;;;;;;8.40;6.45;;;;;;;21.54;46.77;98364.41;5026851;28;20041;-50
2021/09/02 09:49:52;;;;;;;3.50;2.03;;;;;;;21.87;45.93;98376.03;5027664;28;20033;-51
2021/09/02 09:52:30;;;;;;;5.90;2.03;;;;;;;21.47;46.02;98370.44;5026708;28;20049;-51
2021/09/02 09:55:18;;;;;;;3.65;1.90;;;;;;;20.99;46.45;98379.56;5024605;28;20704;-51
2021/09/02 09:57:48;;;;;;;4.65;2.10;;;;;;;20.60;47.84;98360.50;5019464;28;20163;-49
2021/09/02 10:00:15;;;;;;;9.00;4.90;;;;;;;20.64;48.74;98382.16;5023955;28;20107;-52
2021/09/02 10:02:42;;;;;;;5.40;2.33;;;;;;;20.88;48.36;98358.66;5025310;28;20041;-53
2021/09/02 10:05:10;;;;;;;11.05;3.50;;;;;;;21.10;48.30;98376.69;5028259;28;20074;-51
2021/09/02 10:07:37;;;;;;;6.25;2.40;;;;;;;21.34;47.64;98373.50;5037107;28;20046;-50
2021/09/02 10:10:04;;;;;;;3.83;2.20;;;;;;;21.79;47.13;98380.44;5027587;28;20056;-53
2021/09/02 10:12:34;;;;;;;5.63;1.83;;;;;;;22.14;45.48;98383.00;5028400;28;20037;-47
2021/09/02 10:15:20;;;;;;;3.97;2.08;;;;;;;22.76;43.18;98381.81;5029180;28;20037;-45
2021/09/02 10:17:46;;;;;;;2.28;1.65;;;;;;;23.28;41.86;98384.25;5028448;28;20036;-50
2021/09/02 10:20:22;;;;;;;4.25;2.13;;;;;;;23.58;40.87;98380.13;5010709;28;20045;-48
2021/09/02 10:22:50;;;;;;;3.50;1.77;;;;;;;23.74;40.22;98373.97;5025887;28;20130;-48
2021/09/02 10:25:33;;;;;;;3.38;2.13;;;;;;;24.20;39.96;98375.06;5024906;28;20037;-50
2021/09/02 10:28:12;;;;;;;5.43;1.98;;;;;;;23.88;40.52;98386.56;5027837;28;20037;-53
2021/09/02 10:30:39;;;;;;;5.30;2.13;;;;;;;23.23;41.85;98383.91;5027619;28;20378;-54
2021/09/02 10:33:37;;;;;;;5.50;2.55;;;;;;;22.66;42.97;98386.38;5024408;28;20041;-56
2021/09/02 10:36:28;;;;;;;5.28;1.92;;;;;;;22.26;43.41;98397.63;5011905;28;20086;-52
2021/09/02 10:38:56;;;;;;;7.28;5.03;;;;;;;22.05;44.22;98399.81;5006950;28;20057;-52
2021/09/02 10:41:37;;;;;;;4.63;1.95;;;;;;;21.60;44.46;98392.06;5010767;28;20041;-56
2021/09/02 10:44:19;;;;;;;5.75;1.88;;;;;;;21.07;44.44;98395.50;5026602;28;20045;-52
2021/09/02 10:46:49;;;;;;;3.65;2.08;;;;;;;20.64;45.74;98401.47;5028366;28;20049;-54
2021/09/02 10:49:15;;;;;;;3.53;2.25;;;;;;;20.27;47.05;98403.28;5028228;28;20045;-50
2021/09/02 10:51:43;;;;;;;3.50;1.80;;;;;;;19.94;48.00;98409.09;5028091;28;20470;-52
2021/09/02 10:54:10;;;;;;;3.57;1.77;;;;;;;19.60;48.75;98390.25;5027802;28;20512;-53
2021/09/02 10:56:52;;;;;;;3.28;1.95;;;;;;;19.44;49.00;98409.25;5027521;28;20866;-53
2021/09/02 10:59:46;;;;;;;3.58;1.90;;;;;;;19.25;49.46;98398.72;5027246;28;20462;-52
2021/09/02 11:02:15;;;;;;;5.32;2.00;;;;;;;19.20;48.97;98406.22;5025831;28;20048;-56
2021/09/02 11:04:41;;;;;;;7.68;2.40;;;;;;;19.14;49.04;98397.06;5026369;28;20493;-49
2021/09/02 11:07:07;;;;;;;4.93;2.13;;;;;;;18.92;48.29;98382.34;5027993;28;20045;-50
2021/09/02 11:09:37;;;;;;;3.85;2.10;;;;;;;19.05;47.82;98403.16;5026830;28;20052;-52
2021/09/02 11:12:05;;;;;;;3.08;1.67;;;;;;;19.08;47.98;98416.03;5027372;28;20087;-56
2021/09/02 11:14:39;;;;;;;4.53;1.77;;;;;;;19.14;47.39;98428.66;5027713;28;20044;-54
2021/09/02 11:17:08;;;;;;;4.05;1.80;;;;;;;19.00;46.96;98400.06;5028840;28;20410;-53
2021/09/02 11:19:39;;;;;;;3.53;2.25;;;;;;;18.97;47.28;98426.69;5062711;28;20132;-57
2021/09/02 11:22:09;;;;;;;4.68;2.75;;;;;;;18.87;48.01;98446.91;5029825;28;20048;-57
2021/09/02 11:24:39;;;;;;;3.60;2.22;;;;;;;18.66;47.66;98447.00;5031261;28;20045;-54
2021/09/02 11:27:06;;;;;;;7.25;1.60;;;;;;;18.48;46.84;98435.38;5030538;28;20059;-54
2021/09/02 11:29:32;;;;;;;5.03;2.42;;;;;;;18.37;46.35;98443.38;5030805;28;20088;-50
2021/09/02 11:32:11;;;;;;;4.78;1.70;;;;;;;18.29;46.47;98427.41;5030952;28;20466;-55
2021/09/02 11:34:39;;;;;;;8.65;2.35;;;;;;;18.30;46.78;98429.91;5012076;28;20100;-52
2021/09/02 11:37:05;;;;;;;4.60;1.60;;;;;;;18.60;46.33;98427.28;5017204;28;20128;-54